createdAt,value
2023-04-19T00:00:00.146Z,1024.43
2023-04-19T00:01:00.174Z,1024.43
2023-04-19T00:02:00.210Z,1024.44
2023-04-19T00:03:00.130Z,1024.41
2023-04-19T00:04:00.162Z,1024.42
2023-04-19T00:04:59.971Z,1024.40
2023-04-19T00:05:59.914Z,1024.38
2023-04-19T00:06:59.925Z,1024.37
2023-04-19T00:07:59.825Z,1024.34
2023-04-19T00:08:59.788Z,1024.34
2023-04-19T00:09:59.762Z,1024.35
2023-04-19T00:10:59.734Z,1024.30
2023-04-19T00:11:59.699Z,1024.36
2023-04-19T00:12:59.717Z,1024.31
2023-04-19T00:13:59.602Z,1024.33
2023-04-19T00:14:59.583Z,1024.31
2023-04-19T00:15:59.564Z,1024.32
2023-04-19T00:16:59.593Z,1024.28
2023-04-19T00:17:59.596Z,1024.30
2023-04-19T00:18:59.440Z,1024.29
2023-04-19T00:19:59.409Z,1024.29
2023-04-19T00:20:59.375Z,1024.24
2023-04-19T00:21:59.331Z,1024.24
2023-04-19T00:22:59.433Z,1024.19
2023-04-19T00:23:59.271Z,1024.23
2023-04-19T00:24:59.217Z,1024.20
2023-04-19T00:25:59.195Z,1024.22
2023-04-19T00:26:59.164Z,1024.31
2023-04-19T00:27:59.175Z,1024.23
2023-04-19T00:28:59.071Z,1024.19
2023-04-19T00:29:59.049Z,1024.19
2023-04-19T00:30:59.016Z,1024.22
2023-04-19T00:31:58.970Z,1024.18
2023-04-19T00:32:58.957Z,1024.15
2023-04-19T00:33:58.957Z,1024.17
2023-04-19T00:34:58.946Z,1024.17
2023-04-19T00:35:58.833Z,1024.22
2023-04-19T00:36:58.787Z,1024.18
2023-04-19T00:37:58.759Z,1024.23
2023-04-19T00:38:58.720Z,1024.20
2023-04-19T00:39:58.761Z,1024.22
2023-04-19T00:40:58.676Z,1024.18
2023-04-19T00:41:58.621Z,1024.16
2023-04-19T00:42:58.578Z,1024.19
2023-04-19T00:43:58.559Z,1024.16
2023-04-19T00:44:58.573Z,1024.19
2023-04-19T00:45:58.501Z,1024.10
2023-04-19T00:46:58.453Z,1024.16
2023-04-19T00:47:58.427Z,1024.17
2023-04-19T00:48:58.356Z,1024.08
2023-04-19T00:49:58.390Z,1024.13
2023-04-19T00:50:58.368Z,1024.05
2023-04-19T00:51:58.260Z,1024.12
2023-04-19T00:52:58.242Z,1024.09
2023-04-19T00:53:58.189Z,1024.07
2023-04-19T00:54:58.147Z,1024.07
2023-04-19T00:55:58.192Z,1024.08
2023-04-19T00:56:58.078Z,1024.04
2023-04-19T00:57:58.033Z,1024.06
2023-04-19T00:58:58.004Z,1024.09
2023-04-19T00:59:57.981Z,1024.13
2023-04-19T01:00:57.942Z,1024.10
2023-04-19T01:01:58.027Z,1024.13
2023-04-19T01:02:57.974Z,1024.07
2023-04-19T01:03:57.884Z,1024.03
2023-04-19T01:04:57.809Z,1024.06
2023-04-19T01:05:57.781Z,1024.16
2023-04-19T01:06:57.805Z,1024.12
2023-04-19T01:07:57.680Z,1024.17
2023-04-19T01:08:57.655Z,1024.15
2023-04-19T01:09:57.618Z,1024.07
2023-04-19T01:10:57.585Z,1024.05
2023-04-19T01:11:57.619Z,1024.06
2023-04-19T01:12:57.502Z,1024.06
2023-04-19T01:13:57.468Z,1024.12
2023-04-19T01:14:57.442Z,1024.12
2023-04-19T01:15:57.551Z,1024.11
2023-04-19T01:16:57.368Z,1024.07
2023-04-19T01:17:57.412Z,1024.10
2023-04-19T01:18:57.318Z,1024.05
2023-04-19T01:19:57.248Z,1024.10
2023-04-19T01:20:57.221Z,1024.08
2023-04-19T01:21:57.177Z,1024.08
2023-04-19T01:22:57.154Z,1024.12
2023-04-19T01:23:57.162Z,1024.08
2023-04-19T01:24:57.078Z,1024.05
2023-04-19T01:25:57.030Z,1024.06
2023-04-19T01:26:57.010Z,1024.08
2023-04-19T01:27:56.973Z,1023.98
2023-04-19T01:28:57.002Z,1024.03
2023-04-19T01:29:56.916Z,1024.10
2023-04-19T01:30:56.905Z,1024.01
2023-04-19T01:31:56.857Z,1024.02
2023-04-19T01:32:56.844Z,1024.02
2023-04-19T01:33:56.769Z,1024.08
2023-04-19T01:34:56.820Z,1024.12
2023-04-19T01:35:56.690Z,1024.06
2023-04-19T01:36:56.661Z,1024.07
2023-04-19T01:37:56.690Z,1024.05
2023-04-19T01:38:56.602Z,1024.42
2023-04-19T01:39:56.628Z,1024.04
2023-04-19T01:40:56.511Z,1024.13
2023-04-19T01:41:56.476Z,1024.28
2023-04-19T01:42:56.459Z,1024.27
2023-04-19T01:43:56.394Z,1024.02
2023-04-19T01:44:56.375Z,1024.15
2023-04-19T01:45:56.395Z,1024.06
2023-04-19T01:46:56.312Z,1024.09
2023-04-19T01:47:56.284Z,1024.05
2023-04-19T01:48:56.225Z,1024.09
2023-04-19T01:49:56.182Z,1024.05
2023-04-19T01:50:56.144Z,1024.00
2023-04-19T01:51:56.536Z,1023.98
2023-04-19T01:52:56.101Z,1024.00
2023-04-19T01:53:56.040Z,1024.05
2023-04-19T01:54:56.008Z,1023.98
2023-04-19T01:55:55.987Z,1024.00
2023-04-19T01:56:56.025Z,1023.99
2023-04-19T01:57:55.918Z,1024.02
2023-04-19T01:58:55.860Z,1023.97
2023-04-19T01:59:55.825Z,1023.92
2023-04-19T02:00:55.830Z,1024.02
2023-04-19T02:01:55.815Z,1023.94
2023-04-19T02:02:55.901Z,1023.95
2023-04-19T02:03:55.880Z,1023.95
2023-04-19T02:04:55.644Z,1023.96
2023-04-19T02:05:55.617Z,1023.98
2023-04-19T02:06:55.582Z,1023.98
2023-04-19T02:07:55.610Z,1023.96
2023-04-19T02:08:55.518Z,1023.95
2023-04-19T02:09:55.466Z,1023.93
2023-04-19T02:10:55.516Z,1023.94
2023-04-19T02:11:55.439Z,1023.97
2023-04-19T02:12:55.414Z,1023.94
2023-04-19T02:13:55.364Z,1023.91
2023-04-19T02:14:55.308Z,1023.91
2023-04-19T02:15:55.356Z,1023.85
2023-04-19T02:16:55.284Z,1023.90
2023-04-19T02:17:55.213Z,1023.92
2023-04-19T02:18:55.144Z,1023.96
2023-04-19T02:19:55.107Z,1023.95
2023-04-19T02:20:55.123Z,1023.93
2023-04-19T02:21:55.024Z,1023.95
2023-04-19T02:22:55.002Z,1023.98
2023-04-19T02:23:54.960Z,1023.91
2023-04-19T02:24:54.985Z,1024.01
2023-04-19T02:25:54.887Z,1023.99
2023-04-19T02:26:54.876Z,1023.99
2023-04-19T02:27:54.824Z,1024.01
2023-04-19T02:28:54.799Z,1024.05
2023-04-19T02:29:54.800Z,1024.00
2023-04-19T02:30:54.702Z,1024.00
2023-04-19T02:31:54.724Z,1023.95
2023-04-19T02:32:54.674Z,1023.99
2023-04-19T02:33:54.593Z,1023.95
2023-04-19T02:34:54.579Z,1024.04
2023-04-19T02:35:54.578Z,1023.94
2023-04-19T02:36:54.496Z,1023.94
2023-04-19T02:37:54.468Z,1023.89
2023-04-19T02:38:54.419Z,1023.90
2023-04-19T02:39:54.382Z,1023.91
2023-04-19T02:40:54.424Z,1023.87
2023-04-19T02:41:54.360Z,1023.91
2023-04-19T02:42:54.259Z,1023.86
2023-04-19T02:43:54.247Z,1023.90
2023-04-19T02:44:54.183Z,1023.87
2023-04-19T02:45:54.179Z,1023.94
2023-04-19T02:46:54.178Z,1023.91
2023-04-19T02:47:54.130Z,1023.91
2023-04-19T02:48:54.044Z,1023.85
2023-04-19T02:49:54.021Z,1023.83
2023-04-19T02:50:53.972Z,1023.87
2023-04-19T02:51:53.925Z,1023.86
2023-04-19T02:52:53.987Z,1023.86
2023-04-19T02:53:53.882Z,1023.89
2023-04-19T02:54:53.836Z,1023.79
2023-04-19T02:55:53.790Z,1023.75
2023-04-19T02:56:53.779Z,1023.74
2023-04-19T02:57:53.801Z,1023.70
2023-04-19T02:58:53.699Z,1023.78
2023-04-19T02:59:53.663Z,1023.88
2023-04-19T03:00:53.618Z,1023.85
2023-04-19T03:01:53.562Z,1023.71
2023-04-19T03:02:53.723Z,1023.70
2023-04-19T03:03:54.098Z,1023.72
2023-04-19T03:04:53.460Z,1023.72
2023-04-19T03:05:53.497Z,1023.74
2023-04-19T03:06:53.410Z,1023.73
2023-04-19T03:07:53.351Z,1023.70
2023-04-19T03:08:53.311Z,1023.71
2023-04-19T03:09:53.277Z,1023.69
2023-04-19T03:10:53.343Z,1023.67
2023-04-19T03:11:53.325Z,1023.67
2023-04-19T03:12:53.169Z,1023.70
2023-04-19T03:13:53.117Z,1023.66
2023-04-19T03:14:53.113Z,1023.71
2023-04-19T03:15:53.183Z,1023.62
2023-04-19T03:16:53.017Z,1023.72
2023-04-19T03:17:53.051Z,1023.70
2023-04-19T03:18:52.937Z,1023.66
2023-04-19T03:19:52.915Z,1023.68
2023-04-19T03:20:52.880Z,1023.67
2023-04-19T03:21:52.841Z,1023.61
2023-04-19T03:22:52.812Z,1023.59
2023-04-19T03:23:52.839Z,1023.59
2023-04-19T03:24:52.713Z,1023.58
2023-04-19T03:25:52.709Z,1023.57
2023-04-19T03:26:52.652Z,1023.55
2023-04-19T03:27:52.609Z,1023.56
2023-04-19T03:28:52.569Z,1023.51
2023-04-19T03:29:52.587Z,1023.50
2023-04-19T03:30:52.523Z,1023.51
2023-04-19T03:31:52.448Z,1023.49
2023-04-19T03:32:52.431Z,1023.46
2023-04-19T03:33:52.382Z,1023.44
2023-04-19T03:34:52.334Z,1023.40
2023-04-19T03:35:52.367Z,1023.41
2023-04-19T03:36:52.305Z,1023.45
2023-04-19T03:37:52.228Z,1023.40
2023-04-19T03:38:52.224Z,1023.37
2023-04-19T03:39:52.148Z,1023.40
2023-04-19T03:40:52.135Z,1023.40
2023-04-19T03:41:52.152Z,1023.34
2023-04-19T03:42:52.052Z,1023.40
2023-04-19T03:43:52.112Z,1023.35
2023-04-19T03:44:51.963Z,1023.34
2023-04-19T03:45:51.983Z,1023.36
2023-04-19T03:46:51.906Z,1023.37
2023-04-19T03:47:51.908Z,1023.33
2023-04-19T03:48:51.805Z,1023.28
2023-04-19T03:49:51.868Z,1023.28
2023-04-19T03:50:51.742Z,1023.29
2023-04-19T03:51:51.706Z,1023.32
2023-04-19T03:52:51.670Z,1023.34
2023-04-19T03:53:51.630Z,1023.30
2023-04-19T03:54:51.596Z,1023.31
2023-04-19T03:55:51.608Z,1023.31
2023-04-19T03:56:51.516Z,1023.37
2023-04-19T03:57:51.491Z,1023.42
2023-04-19T03:58:51.437Z,1023.34
2023-04-19T03:59:51.396Z,1023.29
2023-04-19T04:00:51.396Z,1023.25
2023-04-19T04:01:51.433Z,1023.27
2023-04-19T04:02:51.447Z,1023.26
2023-04-19T04:03:51.332Z,1023.25
2023-04-19T04:04:51.290Z,1023.28
2023-04-19T04:05:51.180Z,1023.27
2023-04-19T04:06:51.136Z,1023.25
2023-04-19T04:07:51.162Z,1023.27
2023-04-19T04:08:51.058Z,1023.27
2023-04-19T04:09:51.042Z,1023.29
2023-04-19T04:10:51.039Z,1023.26
2023-04-19T04:11:50.952Z,1023.28
2023-04-19T04:12:50.920Z,1023.31
2023-04-19T04:13:50.960Z,1023.28
2023-04-19T04:14:50.846Z,1023.28
2023-04-19T04:15:50.938Z,1023.30
2023-04-19T04:16:50.818Z,1023.32
2023-04-19T04:17:50.752Z,1023.28
2023-04-19T04:18:50.766Z,1023.30
2023-04-19T04:19:50.656Z,1023.29
2023-04-19T04:20:50.635Z,1023.37
2023-04-19T04:21:50.588Z,1023.32
2023-04-19T04:22:50.565Z,1023.33
2023-04-19T04:23:50.505Z,1023.33
2023-04-19T04:24:50.543Z,1023.32
2023-04-19T04:25:50.432Z,1023.33
2023-04-19T04:26:50.442Z,1023.30
2023-04-19T04:27:50.358Z,1023.35
2023-04-19T04:28:50.326Z,1023.38
2023-04-19T04:29:50.280Z,1023.35
2023-04-19T04:30:50.296Z,1023.40
2023-04-19T04:31:50.441Z,1023.40
2023-04-19T04:32:50.219Z,1023.41
2023-04-19T04:33:50.199Z,1023.40
2023-04-19T04:34:50.205Z,1023.36
2023-04-19T04:40:29.396Z,1023.31
2023-04-19T04:41:26.192Z,1023.39
2023-04-19T04:42:26.122Z,1023.35
2023-04-19T04:43:26.080Z,1023.43
2023-04-19T04:44:26.251Z,1023.39
2023-04-19T04:45:26.003Z,1023.29
2023-04-19T04:46:26.115Z,1023.34
2023-04-19T04:47:25.977Z,1023.29
2023-04-19T04:48:25.895Z,1023.31
2023-04-19T04:49:25.857Z,1023.26
2023-04-19T04:50:25.825Z,1023.26
2023-04-19T04:51:25.784Z,1023.28
2023-04-19T04:52:25.798Z,1023.27
2023-04-19T04:53:25.730Z,1023.22
2023-04-19T04:54:25.685Z,1023.19
2023-04-19T04:55:25.647Z,1023.25
2023-04-19T04:56:25.645Z,1023.18
2023-04-19T04:57:25.572Z,1023.17
2023-04-19T04:58:25.584Z,1023.18
2023-04-19T04:59:25.492Z,1023.21
2023-04-19T05:00:25.468Z,1023.15
2023-04-19T05:01:25.490Z,1023.18
2023-04-19T05:02:25.592Z,1023.20
2023-04-19T05:03:25.421Z,1023.20
2023-04-19T05:04:25.383Z,1023.18
2023-04-19T05:05:25.287Z,1023.12
2023-04-19T05:06:25.240Z,1023.15
2023-04-19T05:07:25.201Z,1023.14
2023-04-19T05:08:25.164Z,1023.16
2023-04-19T05:09:25.141Z,1023.13
2023-04-19T05:10:25.146Z,1023.08
2023-04-19T05:11:25.057Z,1023.15
2023-04-19T05:12:25.014Z,1023.15
2023-04-19T05:13:24.988Z,1023.14
2023-04-19T05:14:24.944Z,1023.17
2023-04-19T05:15:24.913Z,1023.13
2023-04-19T05:16:24.986Z,1023.11
2023-04-19T05:17:24.857Z,1023.07
2023-04-19T05:18:24.840Z,1023.11
2023-04-19T05:19:24.779Z,1023.14
2023-04-19T05:20:24.727Z,1023.13
2023-04-19T05:21:24.681Z,1023.09
2023-04-19T05:22:24.706Z,1023.08
2023-04-19T05:23:24.607Z,1023.12
2023-04-19T05:24:24.582Z,1023.15
2023-04-19T05:25:24.589Z,1023.12
2023-04-19T05:26:24.508Z,1023.10
2023-04-19T05:27:24.472Z,1023.10
2023-04-19T05:28:24.490Z,1023.08
2023-04-19T05:29:24.406Z,1023.11
2023-04-19T05:30:24.357Z,1023.14
2023-04-19T05:31:24.318Z,1023.11
2023-04-19T05:32:24.302Z,1023.07
2023-04-19T05:33:24.244Z,1023.03
2023-04-19T05:34:24.265Z,1023.03
2023-04-19T05:35:24.178Z,1023.07
2023-04-19T05:36:24.141Z,1023.04
2023-04-19T05:37:24.100Z,1023.07
2023-04-19T05:38:24.065Z,1023.07
2023-04-19T05:39:24.102Z,1023.02
2023-04-19T05:40:24.004Z,1022.99
2023-04-19T05:41:23.957Z,1023.03
2023-04-19T05:42:23.917Z,1022.99
2023-04-19T05:43:23.899Z,1022.95
2023-04-19T05:44:23.851Z,1022.96
2023-04-19T05:45:23.883Z,1022.87
2023-04-19T05:46:23.803Z,1022.91
2023-04-19T05:47:23.774Z,1022.84
2023-04-19T05:48:23.705Z,1022.88
2023-04-19T05:49:23.670Z,1022.84
2023-04-19T05:50:23.640Z,1022.83
2023-04-19T05:51:23.635Z,1022.79
2023-04-19T05:52:23.544Z,1022.79
2023-04-19T05:53:23.508Z,1022.81
2023-04-19T05:54:23.477Z,1022.78
2023-04-19T05:55:23.446Z,1022.78
2023-04-19T05:56:23.440Z,1022.81
2023-04-19T05:57:23.426Z,1022.87
2023-04-19T05:58:23.407Z,1022.81
2023-04-19T05:59:23.296Z,1022.83
2023-04-19T06:00:23.259Z,1022.82
2023-04-19T06:01:23.236Z,1022.86
2023-04-19T06:02:23.382Z,1022.75
2023-04-19T06:03:23.329Z,1022.76
2023-04-19T06:04:23.841Z,1022.86
2023-04-19T06:05:23.308Z,1022.78
2023-04-19T06:06:23.130Z,1022.84
2023-04-19T06:07:31.808Z,1022.72
2023-04-19T06:08:23.028Z,1022.74
2023-04-19T06:09:22.945Z,1022.78
2023-04-19T06:10:22.888Z,1022.79
2023-04-19T06:11:28.773Z,1022.77
2023-04-19T06:12:22.820Z,1022.80
2023-04-19T06:13:22.912Z,1022.93
2023-04-19T06:14:22.798Z,1022.84
2023-04-19T06:15:22.716Z,1022.89
2023-04-19T06:16:22.681Z,1022.84
2023-04-19T06:17:22.675Z,1022.81
2023-04-19T06:18:22.600Z,1022.83
2023-04-19T06:19:22.633Z,1022.81
2023-04-19T06:20:22.541Z,1022.84
2023-04-19T06:21:22.504Z,1022.95
2023-04-19T06:22:22.449Z,1022.81
2023-04-19T06:23:22.419Z,1022.80
2023-04-19T06:24:22.374Z,1022.92
2023-04-19T06:25:22.569Z,1022.78
2023-04-19T06:26:22.312Z,1022.85
2023-04-19T06:27:22.276Z,1022.82
2023-04-19T06:28:22.241Z,1022.87
2023-04-19T06:29:22.236Z,1022.94
2023-04-19T06:30:22.164Z,1022.83
2023-04-19T06:31:22.214Z,1022.91
2023-04-19T06:32:22.203Z,1022.73
2023-04-19T06:33:22.064Z,1022.83
2023-04-19T06:34:22.015Z,1022.69
2023-04-19T06:35:21.980Z,1022.71
2023-04-19T06:36:21.999Z,1022.71
2023-04-19T06:37:21.906Z,1022.77
2023-04-19T06:38:21.873Z,1022.83
2023-04-19T06:39:21.837Z,1022.78
2023-04-19T06:40:21.828Z,1022.80
2023-04-19T06:41:21.767Z,1022.77
2023-04-19T06:42:21.795Z,1022.77
2023-04-19T06:43:21.698Z,1022.78
2023-04-19T06:44:21.656Z,1022.71
2023-04-19T06:45:21.622Z,1022.75
2023-04-19T06:46:21.668Z,1022.72
2023-04-19T06:47:21.600Z,1022.74
2023-04-19T06:48:21.572Z,1022.68
2023-04-19T06:49:21.472Z,1022.70
2023-04-19T06:50:21.444Z,1022.66
2023-04-19T06:51:21.405Z,1022.66
2023-04-19T06:52:21.374Z,1022.63
2023-04-19T06:53:21.387Z,1022.67
2023-04-19T06:54:21.315Z,1022.67
2023-04-19T06:55:21.256Z,1022.80
2023-04-19T06:56:21.221Z,1022.58
2023-04-19T06:57:21.196Z,1022.63
2023-04-19T06:58:21.205Z,1022.56
2023-04-19T06:59:21.112Z,1022.64
2023-04-19T07:00:21.099Z,1022.74
2023-04-19T07:01:21.128Z,1022.68
2023-04-19T07:02:21.167Z,1022.55
2023-04-19T07:03:21.069Z,1022.62
2023-04-19T07:04:21.530Z,1022.60
2023-04-19T07:05:20.904Z,1022.53
2023-04-19T07:06:20.855Z,1022.73
2023-04-19T07:07:20.870Z,1022.49
2023-04-19T07:08:20.792Z,1022.64
2023-04-19T07:09:20.762Z,1022.52
2023-04-19T07:10:20.819Z,1022.41
2023-04-19T07:11:22.375Z,1022.48
2023-04-19T07:12:20.661Z,1022.49
2023-04-19T07:13:20.610Z,1022.45
2023-04-19T07:14:20.580Z,1022.44
2023-04-19T07:15:20.537Z,1022.45
2023-04-19T07:16:20.658Z,1022.42
2023-04-19T07:17:20.490Z,1022.41
2023-04-19T07:18:20.444Z,1022.36
2023-04-19T07:19:20.438Z,1022.46
2023-04-19T07:20:20.357Z,1022.35
2023-04-19T07:21:20.330Z,1022.35
2023-04-19T07:22:20.354Z,1022.33
2023-04-19T07:23:20.266Z,1022.28
2023-04-19T07:24:20.218Z,1022.39
2023-04-19T07:25:20.197Z,1022.28
2023-04-19T07:26:20.144Z,1022.38
2023-04-19T07:27:20.142Z,1022.22
2023-04-19T07:28:20.147Z,1022.25
2023-04-19T07:29:20.137Z,1022.28
2023-04-19T07:30:20.003Z,1022.15
2023-04-19T07:31:19.978Z,1022.21
2023-04-19T07:32:20.047Z,1022.22
2023-04-19T07:33:19.913Z,1022.26
2023-04-19T07:34:20.068Z,1022.31
2023-04-19T07:35:19.828Z,1022.09
2023-04-19T07:36:19.794Z,1022.15
2023-04-19T07:37:19.760Z,1022.18
2023-04-19T07:38:19.736Z,1022.18
2023-04-19T07:39:19.741Z,1022.11
2023-04-19T07:40:19.663Z,1022.24
2023-04-19T07:41:19.635Z,1022.19
2023-04-19T07:42:19.625Z,1022.23
2023-04-19T07:43:19.569Z,1022.27
2023-04-19T07:44:19.715Z,1022.13
2023-04-19T07:45:19.497Z,1022.36
2023-04-19T07:46:19.460Z,1022.12
2023-04-19T07:47:19.530Z,1022.14
2023-04-19T07:48:19.382Z,1022.15
2023-04-19T07:49:19.341Z,1022.37
2023-04-19T07:50:20.422Z,1022.13
2023-04-19T07:51:20.248Z,1022.17
2023-04-19T07:52:19.313Z,1022.15
2023-04-19T07:53:19.201Z,1022.10
2023-04-19T07:54:19.162Z,1022.10
2023-04-19T07:55:19.157Z,1022.04
2023-04-19T07:56:19.096Z,1022.05
2023-04-19T07:57:19.122Z,1022.09
2023-04-19T07:58:19.028Z,1022.08
2023-04-19T07:59:18.996Z,1022.01
2023-04-19T08:00:18.978Z,1022.09
2023-04-19T08:01:19.104Z,1022.10
2023-04-19T08:02:19.046Z,1022.09
2023-04-19T08:03:19.029Z,1022.19
2023-04-19T08:04:19.292Z,1021.90
2023-04-19T08:05:18.878Z,1022.02
2023-04-19T08:06:18.747Z,1021.94
2023-04-19T08:07:18.734Z,1021.92
2023-04-19T08:08:18.727Z,1021.77
2023-04-19T08:09:18.670Z,1021.85
2023-04-19T08:10:18.602Z,1022.00
2023-04-19T08:11:18.574Z,1021.71
2023-04-19T08:12:32.965Z,1021.75
2023-04-19T08:13:18.507Z,1021.73
2023-04-19T08:14:32.381Z,1021.97
2023-04-19T08:17:23.296Z,1021.77
2023-04-19T08:18:18.372Z,1021.79
2023-04-19T08:19:18.405Z,1021.69
2023-04-19T08:20:18.262Z,1021.90
2023-04-19T08:21:18.554Z,1021.74
2023-04-19T08:22:18.202Z,1021.76
2023-04-19T08:23:24.404Z,1021.65
2023-04-19T08:24:18.369Z,1021.77
2023-04-19T08:25:18.144Z,1021.77
2023-04-19T08:26:18.054Z,1021.57
2023-04-19T08:27:18.086Z,1021.74
2023-04-19T08:28:17.996Z,1021.66
2023-04-19T08:29:18.163Z,1021.68
2023-04-19T08:30:17.929Z,1021.66
2023-04-19T08:31:18.017Z,1021.65
2023-04-19T08:32:17.894Z,1021.72
2023-04-19T08:33:17.836Z,1021.61
2023-04-19T08:34:17.842Z,1021.48
2023-04-19T08:35:17.772Z,1021.81
2023-04-19T08:36:22.215Z,1021.62
2023-04-19T08:37:17.680Z,1021.55
2023-04-19T08:38:17.652Z,1021.76
2023-04-19T08:39:29.225Z,1021.65
2023-04-19T08:40:17.627Z,1021.79
2023-04-19T08:41:17.556Z,1021.91
2023-04-19T08:42:28.804Z,1021.65
2023-04-19T08:43:17.483Z,1021.57
2023-04-19T08:44:25.351Z,1021.52
2023-04-19T08:45:27.808Z,1021.53
2023-04-19T08:46:17.414Z,1021.68
2023-04-19T08:47:27.025Z,1021.58
2023-04-19T08:48:17.350Z,1021.52
2023-04-19T08:49:17.706Z,1021.41
2023-04-19T08:50:32.645Z,1021.53
2023-04-19T08:51:17.214Z,1021.51
2023-04-19T08:52:17.166Z,1021.61
2023-04-19T08:53:24.634Z,1021.62
2023-04-19T08:54:17.111Z,1021.58
2023-04-19T08:55:17.138Z,1021.48
2023-04-19T08:57:16.995Z,1021.62
2023-04-19T08:58:28.476Z,1021.69
2023-04-19T08:59:18.917Z,1021.55
2023-04-19T09:00:16.893Z,1021.58
2023-04-19T09:01:30.482Z,1021.42
2023-04-19T09:02:16.900Z,1021.42
2023-04-19T09:03:17.034Z,1021.60
2023-04-19T09:04:27.180Z,1021.50
2023-04-19T09:05:16.803Z,1021.53
2023-04-19T09:06:16.961Z,1021.43
2023-04-19T09:07:16.701Z,1021.47
2023-04-19T09:08:16.651Z,1021.56
2023-04-19T09:09:33.179Z,1021.51
2023-04-19T09:10:16.568Z,1021.41
2023-04-19T09:11:16.518Z,1021.33
2023-04-19T09:12:16.502Z,1021.49
2023-04-19T09:13:17.198Z,1021.39
2023-04-19T09:14:16.427Z,1021.49
2023-04-19T09:15:16.379Z,1021.43
2023-04-19T09:16:25.495Z,1021.39
2023-04-19T09:17:16.334Z,1021.37
2023-04-19T09:18:16.276Z,1021.64
2023-04-19T09:19:24.095Z,1021.36
2023-04-19T09:20:16.266Z,1021.27
2023-04-19T09:21:16.187Z,1021.31
2023-04-19T09:22:16.188Z,1021.33
2023-04-19T09:23:16.137Z,1021.25
2023-04-19T09:24:16.324Z,1021.37
2023-04-19T09:25:37.864Z,1021.32
2023-04-19T09:26:23.483Z,1021.39
2023-04-19T09:27:15.978Z,1021.46
2023-04-19T09:28:15.972Z,1021.25
2023-04-19T09:29:16.324Z,1021.16
2023-04-19T09:30:27.840Z,1021.01
2023-04-19T09:32:15.913Z,1021.05
2023-04-19T09:33:15.977Z,1021.05
2023-04-19T09:34:15.767Z,1021.01
2023-04-19T09:35:15.720Z,1021.26
2023-04-19T09:36:15.699Z,1020.94
2023-04-19T09:37:29.633Z,1020.97
2023-04-19T09:38:15.629Z,1020.94
2023-04-19T09:39:16.622Z,1020.94
2023-04-19T09:40:15.558Z,1020.87
2023-04-19T09:41:15.534Z,1020.85
2023-04-19T09:42:18.104Z,1020.92
2023-04-19T09:43:45.307Z,1020.82
2023-04-19T09:46:15.385Z,1020.82
2023-04-19T09:47:15.334Z,1020.98
2023-04-19T09:48:15.310Z,1020.84
2023-04-19T09:49:23.169Z,1020.80
2023-04-19T09:50:23.809Z,1021.02
2023-04-19T09:51:15.425Z,1020.75
2023-04-19T09:52:15.203Z,1020.82
2023-04-19T09:53:15.143Z,1020.85
2023-04-19T09:54:15.117Z,1020.74
2023-04-19T09:55:26.794Z,1020.69
2023-04-19T09:56:15.051Z,1020.58
2023-04-19T09:57:15.023Z,1020.71
2023-04-19T09:58:15.046Z,1020.79
2023-04-19T09:59:20.839Z,1020.94
2023-04-19T10:00:15.077Z,1020.66
2023-04-19T10:01:16.549Z,1020.77
2023-04-19T10:02:14.927Z,1020.69
2023-04-19T10:03:14.876Z,1020.62
2023-04-19T10:04:26.256Z,1020.77
2023-04-19T10:05:20.725Z,1020.59
2023-04-19T10:06:31.738Z,1020.61
2023-04-19T10:08:14.733Z,1020.68
2023-04-19T10:09:14.937Z,1020.67
2023-04-19T10:10:19.978Z,1020.54
2023-04-19T10:11:14.564Z,1020.60
2023-04-19T10:12:38.548Z,1020.73
2023-04-19T10:13:19.711Z,1020.48
2023-04-19T10:14:14.483Z,1020.48
2023-04-19T10:15:14.462Z,1020.52
2023-04-19T10:16:19.555Z,1020.60
2023-04-19T10:17:14.499Z,1020.49
2023-04-19T10:18:14.337Z,1020.48
2023-04-19T10:19:14.520Z,1020.57
2023-04-19T10:20:14.293Z,1020.58
2023-04-19T10:21:14.258Z,1020.41
2023-04-19T10:22:14.264Z,1020.57
2023-04-19T10:23:14.172Z,1020.40
2023-04-19T10:24:14.153Z,1020.34
2023-04-19T10:25:14.119Z,1020.50
2023-04-19T10:26:14.075Z,1020.46
2023-04-19T10:27:14.070Z,1020.30
2023-04-19T10:28:14.210Z,1020.56
2023-04-19T10:29:14.134Z,1020.57
2023-04-19T10:30:13.954Z,1020.38
2023-04-19T10:31:13.980Z,1020.28
2023-04-19T10:32:13.920Z,1020.25
2023-04-19T10:33:13.858Z,1020.30
2023-04-19T10:34:13.873Z,1020.23
2023-04-19T10:35:14.678Z,1020.26
2023-04-19T10:36:13.756Z,1020.16
2023-04-19T10:37:13.736Z,1020.47
2023-04-19T10:38:13.698Z,1020.52
2023-04-19T10:39:13.787Z,1020.36
2023-04-19T10:40:13.671Z,1020.48
2023-04-19T10:41:16.440Z,1020.23
2023-04-19T10:42:13.598Z,1020.41
2023-04-19T10:43:13.544Z,1020.11
2023-04-19T10:44:13.525Z,1020.24
2023-04-19T10:45:13.471Z,1020.02
2023-04-19T10:46:13.582Z,1020.02
2023-04-19T10:47:14.651Z,1020.15
2023-04-19T10:48:13.390Z,1020.41
2023-04-19T10:49:13.529Z,1020.03
2023-04-19T10:50:13.351Z,1019.99
2023-04-19T10:51:14.320Z,1020.10
2023-04-19T10:52:13.290Z,1019.97
2023-04-19T10:53:14.265Z,1020.29
2023-04-19T10:54:13.174Z,1020.19
2023-04-19T10:55:13.151Z,1019.98
2023-04-19T10:56:13.102Z,1020.13
2023-04-19T10:57:13.120Z,1019.87
2023-04-19T10:58:13.059Z,1020.41
2023-04-19T10:59:13.040Z,1019.92
2023-04-19T11:00:13.034Z,1020.16
2023-04-19T11:01:12.967Z,1019.97
2023-04-19T11:02:13.031Z,1020.25
2023-04-19T11:03:12.978Z,1020.10
2023-04-19T11:04:12.992Z,1020.07
2023-04-19T11:05:12.806Z,1020.17
2023-04-19T11:06:12.778Z,1019.86
2023-04-19T11:07:12.744Z,1019.95
2023-04-19T11:08:12.757Z,1020.01
2023-04-19T11:09:12.684Z,1020.00
2023-04-19T11:10:12.956Z,1019.98
2023-04-19T11:11:12.611Z,1020.04
2023-04-19T11:12:12.572Z,1020.04
2023-04-19T11:13:12.599Z,1020.00
2023-04-19T11:14:12.526Z,1019.97
2023-04-19T11:15:12.493Z,1019.96
2023-04-19T11:16:12.471Z,1019.94
2023-04-19T11:17:12.426Z,1020.12
2023-04-19T11:18:13.250Z,1020.20
2023-04-19T11:19:12.416Z,1019.83
2023-04-19T11:20:12.504Z,1019.91
2023-04-19T11:21:12.290Z,1019.86
2023-04-19T11:22:12.260Z,1020.22
2023-04-19T11:23:12.228Z,1019.83
2023-04-19T11:24:12.199Z,1019.86
2023-04-19T11:25:12.309Z,1019.87
2023-04-19T11:26:12.140Z,1019.81
2023-04-19T11:27:12.196Z,1019.88
2023-04-19T11:28:12.077Z,1019.85
2023-04-19T11:29:12.054Z,1019.82
2023-04-19T11:30:12.177Z,1019.92
2023-04-19T11:31:12.131Z,1019.89
2023-04-19T11:32:11.936Z,1019.87
2023-04-19T11:33:11.910Z,1020.29
2023-04-19T11:34:11.880Z,1019.97
2023-04-19T11:35:11.852Z,1019.78
2023-04-19T11:36:11.898Z,1019.79
2023-04-19T11:37:11.804Z,1019.69
2023-04-19T11:38:11.764Z,1019.77
2023-04-19T11:39:11.724Z,1019.75
2023-04-19T11:40:11.688Z,1019.72
2023-04-19T11:41:11.649Z,1019.73
2023-04-19T11:42:11.678Z,1019.76
2023-04-19T11:43:11.658Z,1019.75
2023-04-19T11:44:11.600Z,1019.70
2023-04-19T11:45:25.946Z,1019.72
2023-04-19T11:46:11.587Z,1019.75
2023-04-19T11:47:11.489Z,1019.74
2023-04-19T11:48:11.566Z,1019.74
2023-04-19T11:49:11.472Z,1019.77
2023-04-19T11:50:11.420Z,1019.77
2023-04-19T11:51:11.394Z,1019.84
2023-04-19T11:52:11.381Z,1019.83
2023-04-19T11:53:11.290Z,1019.65
2023-04-19T11:54:11.336Z,1019.73
2023-04-19T11:55:11.269Z,1020.03
2023-04-19T11:56:11.318Z,1019.81
2023-04-19T11:57:11.208Z,1019.81
2023-04-19T11:58:11.171Z,1019.67
2023-04-19T11:59:11.193Z,1019.81
2023-04-19T12:00:11.113Z,1019.65
2023-04-19T12:01:11.032Z,1019.66
2023-04-19T12:02:11.053Z,1019.70
2023-04-19T12:03:11.191Z,1019.63
2023-04-19T12:04:11.059Z,1019.62
2023-04-19T12:05:11.260Z,1019.81
2023-04-19T12:06:10.966Z,1019.78
2023-04-19T12:07:10.868Z,1019.73
2023-04-19T12:08:10.805Z,1019.73
2023-04-19T12:09:10.836Z,1019.67
2023-04-19T12:10:10.768Z,1019.77
2023-04-19T12:11:10.706Z,1019.75
2023-04-19T12:12:10.670Z,1019.80
2023-04-19T12:13:10.656Z,1019.73
2023-04-19T12:14:10.670Z,1019.69
2023-04-19T12:15:10.598Z,1019.70
2023-04-19T12:16:10.580Z,1019.66